Time;durP1;ratioP1;P1;durP2;ratioP2;P2;SDS_P1;SDS_P2;PMS_P1;PMS_P2;Temp;Humidity;BMP_temperature;BMP_pressure;BME280_temperature;BME280_humidity;BME280_pressure;Samples;Min_cycle;Max_cycle;Signal;HPM_P1;HPM_P2
2023/01/08 00:02:09;;;;;;;3.42;2.25;;;9.60;93.50;;;;;;4991983;28;20030;-67
2023/01/08 00:04:35;;;;;;;4.18;2.20;;;9.70;93.50;;;;;;4987784;28;20030;-68
2023/01/08 00:07:01;;;;;;;16.55;2.60;;;9.70;93.30;;;;;;4994518;28;20038;-68
2023/01/08 00:09:27;;;;;;;2.35;1.88;;;9.70;93.30;;;;;;4989040;28;20716;-67
2023/01/08 00:11:52;;;;;;;3.13;2.72;;;9.70;93.20;;;;;;4995258;28;20398;-68
2023/01/08 00:14:18;;;;;;;2.45;2.00;;;9.70;92.90;;;;;;4995971;28;20034;-67
2023/01/08 00:16:44;;;;;;;4.03;2.00;;;9.70;93.10;;;;;;4992554;28;20026;-67
2023/01/08 00:19:11;;;;;;;4.03;1.83;;;9.60;93.10;;;;;;4990658;28;20041;-69
2023/01/08 00:21:37;;;;;;;3.65;2.13;;;9.60;93.20;;;;;;4990746;28;20639;-67
2023/01/08 00:24:03;;;;;;;3.10;2.00;;;9.60;93.30;;;;;;4986587;28;20038;-68
2023/01/08 00:26:29;;;;;;;3.25;2.42;;;9.60;93.30;;;;;;4996494;28;20072;-68
2023/01/08 00:28:56;;;;;;;3.13;2.30;;;9.50;93.40;;;;;;4985038;28;20038;-68
2023/01/08 00:31:21;;;;;;;3.65;2.60;;;9.50;93.50;;;;;;4994698;28;20038;-67
2023/01/08 00:33:47;;;;;;;2.35;2.15;;;9.50;93.50;;;;;;4997727;28;20041;-67
2023/01/08 00:36:16;;;;;;;3.58;2.08;;;9.50;93.50;;;;;;4993650;28;20032;-69
2023/01/08 00:38:43;;;;;;;2.58;2.38;;;9.50;93.50;;;;;;4994661;28;20628;-67
2023/01/08 00:41:10;;;;;;;3.60;2.47;;;9.40;93.60;;;;;;4991013;28;20026;-68
2023/01/08 00:43:36;;;;;;;3.53;2.10;;;9.30;93.80;;;;;;5000357;28;20082;-67
2023/01/08 00:46:02;;;;;;;3.33;2.33;;;9.30;93.80;;;;;;4990439;28;20502;-67
2023/01/08 00:48:30;;;;;;;2.78;2.22;;;9.30;94.00;;;;;;4990577;28;20056;-67
2023/01/08 00:50:56;;;;;;;3.50;2.45;;;9.20;94.20;;;;;;4991456;28;20026;-67
2023/01/08 00:53:22;;;;;;;3.30;2.78;;;9.20;94.20;;;;;;4985997;28;20053;-67
2023/01/08 00:55:49;;;;;;;3.88;2.60;;;9.30;94.00;;;;;;4993697;28;20434;-67
2023/01/08 00:58:15;;;;;;;3.63;2.65;;;9.10;94.30;;;;;;4994459;28;20065;-67
2023/01/08 01:00:41;;;;;;;3.65;2.58;;;9.10;94.50;;;;;;4991062;28;20033;-66
2023/01/08 01:03:06;;;;;;;5.05;2.85;;;9.10;94.70;;;;;;4992690;28;20030;-67
2023/01/08 01:05:33;;;;;;;3.92;2.28;;;9.10;94.60;;;;;;4989652;28;20034;-68
2023/01/08 01:07:59;;;;;;;2.85;2.28;;;9.10;94.50;;;;;;4990124;28;20038;-68
2023/01/08 01:10:25;;;;;;;4.22;2.45;;;9.10;94.40;;;;;;4994868;28;20087;-67
2023/01/08 01:12:51;;;;;;;3.30;2.72;;;9.10;94.40;;;;;;4988559;28;20120;-68
2023/01/08 01:15:17;;;;;;;3.05;2.75;;;9.10;94.50;;;;;;4994583;28;20044;-67
2023/01/08 01:17:45;;;;;;;3.40;2.35;;;9.00;94.50;;;;;;4994128;28;20069;-68
2023/01/08 01:20:14;;;;;;;3.65;2.60;;;9.00;94.90;;;;;;4991623;28;20465;-67
2023/01/08 01:22:41;;;;;;;4.40;2.65;;;9.00;94.80;;;;;;4992695;28;20033;-67
2023/01/08 01:25:08;;;;;;;3.45;2.55;;;9.00;94.80;;;;;;4988268;28;20042;-67
2023/01/08 01:27:34;;;;;;;3.35;2.63;;;9.00;94.90;;;;;;4992604;28;20018;-67
2023/01/08 01:30:00;;;;;;;3.55;2.65;;;9.00;94.80;;;;;;4992394;28;20035;-67
2023/01/08 01:32:26;;;;;;;5.38;2.70;;;9.00;94.70;;;;;;4993012;28;20034;-68
2023/01/08 01:34:52;;;;;;;5.53;3.15;;;9.00;94.60;;;;;;4994331;28;20034;-67
2023/01/08 01:37:17;;;;;;;3.90;2.70;;;9.00;94.60;;;;;;5012341;28;20061;-67
2023/01/08 01:39:43;;;;;;;6.00;2.85;;;9.00;94.80;;;;;;4999017;28;20030;-67
2023/01/08 01:44:58;;;;;;;2.90;2.40;;;8.90;94.80;;;;;;4995553;28;20091;-67
2023/01/08 01:47:31;;;;;;;3.80;2.67;;;8.90;94.80;;;;;;4992834;28;20048;-67
2023/01/08 01:50:05;;;;;;;3.22;2.70;;;8.80;94.80;;;;;;4992722;28;20042;-68
2023/01/08 01:52:38;;;;;;;4.03;2.97;;;8.80;94.90;;;;;;4992816;28;20069;-68
2023/01/08 01:55:06;;;;;;;4.25;2.65;;;8.90;94.90;;;;;;4992629;28;20030;-67
2023/01/08 01:57:32;;;;;;;4.78;3.13;;;8.80;95.00;;;;;;4995479;28;20022;-67
2023/01/08 02:00:03;;;;;;;4.07;2.80;;;8.80;95.00;;;;;;4999419;28;20037;-67
2023/01/08 02:02:37;;;;;;;4.38;3.20;;;8.70;95.00;;;;;;4993449;28;20038;-67
2023/01/08 02:05:03;;;;;;;4.82;2.97;;;8.70;95.10;;;;;;4996440;28;20049;-67
2023/01/08 02:07:48;;;;;;;3.53;2.92;;;8.70;95.10;;;;;;4993391;28;20587;-67
2023/01/08 02:10:17;;;;;;;3.37;2.60;;;8.70;95.30;;;;;;4995188;28;20049;-67
2023/01/08 02:12:56;;;;;;;3.53;2.83;;;8.70;95.40;;;;;;4989971;28;20034;-67
2023/01/08 02:15:37;;;;;;;8.13;3.10;;;8.70;95.30;;;;;;5010882;28;20084;-67
2023/01/08 02:18:13;;;;;;;5.80;3.05;;;8.60;95.20;;;;;;4987538;28;20038;-67
2023/01/08 02:20:42;;;;;;;;;;;8.60;95.30;;;;;;4997995;28;20076;-67
2023/01/08 02:23:36;;;;;;;5.65;2.92;;;8.60;95.30;;;;;;4997031;28;19917;-67
2023/01/08 02:26:20;;;;;;;4.20;2.92;;;8.70;95.40;;;;;;4994065;28;20133;-67
2023/01/08 02:28:55;;;;;;;4.22;3.00;;;8.60;95.40;;;;;;4994981;28;20117;-68
2023/01/08 02:31:24;;;;;;;4.72;3.30;;;8.60;95.40;;;;;;4990358;28;20034;-67
2023/01/08 02:33:50;;;;;;;4.82;2.95;;;8.60;95.30;;;;;;4995199;28;20109;-67
2023/01/08 02:36:25;;;;;;;5.90;2.67;;;8.50;95.20;;;;;;4988415;28;20127;-67
2023/01/08 02:39:06;;;;;;;4.75;3.22;;;8.60;95.50;;;;;;4999965;28;20116;-67
2023/01/08 02:41:57;;;;;;;3.75;2.90;;;8.60;95.30;;;;;;4997433;28;20041;-67
2023/01/08 02:44:53;;;;;;;4.15;3.28;;;8.60;95.50;;;;;;4989776;28;20050;-67
2023/01/08 02:47:41;;;;;;;4.07;3.05;;;8.60;95.40;;;;;;4996215;28;20041;-68
2023/01/08 02:50:33;;;;;;;4.45;3.30;;;8.60;95.50;;;;;;5005904;28;20045;-67
2023/01/08 02:53:05;;;;;;;5.25;3.25;;;8.60;95.50;;;;;;4994877;28;20038;-66
2023/01/08 02:55:34;;;;;;;6.30;3.30;;;8.50;95.60;;;;;;4993594;28;20033;-67
2023/01/08 02:58:01;;;;;;;4.75;3.35;;;8.50;95.60;;;;;;4994767;28;20078;-67
2023/01/08 03:00:28;;;;;;;5.50;3.50;;;8.50;95.70;;;;;;4988531;28;20650;-68
2023/01/08 03:03:14;;;;;;;4.65;3.45;;;8.50;95.70;;;;;;4996807;28;20037;-67
2023/01/08 03:05:44;;;;;;;4.90;3.28;;;8.40;95.70;;;;;;4996933;28;20149;-68
2023/01/08 03:08:11;;;;;;;4.55;2.75;;;8.40;95.60;;;;;;4992346;28;20049;-68
2023/01/08 03:10:40;;;;;;;4.95;3.35;;;8.40;95.40;;;;;;4994407;28;20040;-67
2023/01/08 03:13:17;;;;;;;3.95;3.13;;;8.50;95.60;;;;;;4991175;28;20034;-68
2023/01/08 03:15:51;;;;;;;5.18;3.10;;;8.40;95.60;;;;;;4996687;28;20030;-68
2023/01/08 03:18:34;;;;;;;3.75;3.00;;;8.30;95.80;;;;;;4989677;28;20042;-67
2023/01/08 03:21:02;;;;;;;4.47;2.88;;;8.30;95.90;;;;;;4994664;28;20874;-67
2023/01/08 03:23:32;;;;;;;3.95;3.30;;;8.30;95.80;;;;;;4991734;28;20426;-67
2023/01/08 03:26:00;;;;;;;7.30;3.08;;;8.30;95.90;;;;;;5004957;28;20030;-68
2023/01/08 03:28:31;;;;;;;4.22;3.35;;;8.30;96.00;;;;;;4997431;28;20035;-67
2023/01/08 03:30:58;;;;;;;3.17;2.70;;;8.30;96.00;;;;;;4993196;28;20038;-67
2023/01/08 03:33:26;;;;;;;5.13;3.42;;;8.30;95.80;;;;;;4993901;28;20042;-67
2023/01/08 03:35:54;;;;;;;5.15;3.50;;;8.30;95.80;;;;;;4991642;28;20038;-67
2023/01/08 03:38:26;;;;;;;3.60;3.17;;;8.40;95.60;;;;;;4988114;28;20026;-67
2023/01/08 03:40:58;;;;;;;5.10;3.53;;;8.40;95.60;;;;;;4993368;28;20120;-67
2023/01/08 03:43:25;;;;;;;4.68;3.50;;;8.40;95.50;;;;;;4988733;28;20045;-68
2023/01/08 03:45:58;;;;;;;7.55;3.75;;;8.40;95.60;;;;;;4995724;28;20118;-68
2023/01/08 03:48:25;;;;;;;5.20;3.60;;;8.40;95.60;;;;;;5000338;28;20042;-67
2023/01/08 03:50:51;;;;;;;4.90;3.28;;;8.40;95.70;;;;;;4992054;28;20026;-67
2023/01/08 03:53:17;;;;;;;5.82;3.33;;;8.30;95.70;;;;;;4994857;28;20071;-67
2023/01/08 03:55:43;;;;;;;3.67;3.15;;;8.30;96.00;;;;;;4990703;28;20063;-67
2023/01/08 03:58:09;;;;;;;5.35;3.78;;;8.30;96.00;;;;;;4992688;28;20026;-67
2023/01/08 04:00:35;;;;;;;4.72;3.38;;;8.30;96.20;;;;;;4988491;28;20723;-67
2023/01/08 04:03:01;;;;;;;5.72;3.95;;;8.20;96.10;;;;;;4993528;28;20063;-67
2023/01/08 04:05:27;;;;;;;6.95;3.85;;;8.30;96.00;;;;;;4990179;28;20069;-68
2023/01/08 04:07:56;;;;;;;6.10;3.60;;;8.30;96.00;;;;;;4991802;28;20072;-67
2023/01/08 04:10:23;;;;;;;5.32;3.80;;;8.30;96.10;;;;;;4994934;28;20038;-67
2023/01/08 04:12:48;;;;;;;6.68;4.00;;;8.30;96.00;;;;;;4993434;28;20030;-67
2023/01/08 04:15:14;;;;;;;8.05;4.13;;;8.40;96.00;;;;;;4991596;28;20034;-67
2023/01/08 04:17:40;;;;;;;4.93;3.60;;;8.40;96.00;;;;;;4993089;28;20842;-67
2023/01/08 04:20:07;;;;;;;5.57;3.67;;;8.40;95.90;;;;;;4986649;28;20478;-67
2023/01/08 04:22:33;;;;;;;6.85;4.03;;;8.40;95.80;;;;;;4994610;28;20030;-67
2023/01/08 04:24:59;;;;;;;6.75;3.92;;;8.40;95.80;;;;;;4986953;28;20034;-67
2023/01/08 04:27:25;;;;;;;7.53;3.72;;;8.40;95.70;;;;;;4993392;28;20038;-68
2023/01/08 04:29:50;;;;;;;5.43;3.85;;;8.40;95.70;;;;;;4997365;28;20033;-67
2023/01/08 04:32:16;;;;;;;6.88;3.63;;;8.40;95.70;;;;;;4993141;28;20044;-67
2023/01/08 04:34:42;;;;;;;5.15;4.22;;;8.50;95.60;;;;;;4993589;28;20046;-67
2023/01/08 04:37:08;;;;;;;4.90;3.85;;;8.50;95.50;;;;;;4993846;28;20129;-67
2023/01/08 04:39:33;;;;;;;6.85;3.53;;;8.50;95.60;;;;;;4999575;28;20485;-67
2023/01/08 04:41:59;;;;;;;6.20;4.00;;;8.50;95.60;;;;;;4990812;28;20030;-67
2023/01/08 04:44:25;;;;;;;5.18;3.58;;;8.60;95.50;;;;;;4991474;28;20035;-67
2023/01/08 04:46:51;;;;;;;5.38;3.70;;;8.60;95.50;;;;;;4993423;28;20441;-67
2023/01/08 04:49:17;;;;;;;4.70;3.35;;;8.70;95.40;;;;;;4985539;28;20303;-67
2023/01/08 04:51:42;;;;;;;5.60;3.78;;;8.80;95.10;;;;;;4996817;28;20057;-67
2023/01/08 04:54:08;;;;;;;3.85;3.25;;;8.90;95.00;;;;;;4996914;28;20042;-67
2023/01/08 04:56:34;;;;;;;5.22;3.78;;;8.90;94.80;;;;;;4989736;28;20505;-67
2023/01/08 04:59:00;;;;;;;6.15;3.42;;;8.90;94.80;;;;;;4993452;28;20034;-67
2023/01/08 05:01:27;;;;;;;4.60;3.80;;;8.90;94.80;;;;;;4991801;28;20038;-67
2023/01/08 05:03:59;;;;;;;4.55;3.55;;;8.90;94.80;;;;;;4992987;28;20057;-68
2023/01/08 05:06:25;;;;;;;4.35;2.92;;;9.00;94.40;;;;;;4991814;28;20684;-67
2023/01/08 05:08:51;;;;;;;4.60;3.25;;;9.10;94.50;;;;;;4992825;28;20409;-67
2023/01/08 05:11:17;;;;;;;4.78;3.72;;;9.10;94.20;;;;;;4998092;28;20034;-68
2023/01/08 05:13:46;;;;;;;5.03;3.55;;;9.20;94.10;;;;;;5002751;28;20041;-67
2023/01/08 05:16:11;;;;;;;4.63;3.70;;;9.20;94.10;;;;;;4996189;28;20127;-68
2023/01/08 05:18:37;;;;;;;4.90;3.40;;;9.20;94.00;;;;;;4999959;28;20113;-67
2023/01/08 05:21:04;;;;;;;4.82;3.58;;;9.20;94.00;;;;;;4991524;28;20404;-67
2023/01/08 05:23:31;;;;;;;5.43;3.65;;;9.20;94.00;;;;;;4996454;28;20029;-68
2023/01/08 05:25:58;;;;;;;4.93;3.50;;;9.20;93.80;;;;;;4991396;28;20041;-67
2023/01/08 05:28:24;;;;;;;3.42;2.75;;;9.20;94.00;;;;;;4995949;28;20569;-67
2023/01/08 05:30:50;;;;;;;4.45;3.58;;;9.20;94.10;;;;;;4990232;28;20372;-68
2023/01/08 05:33:16;;;;;;;4.47;3.17;;;9.30;93.90;;;;;;4993858;28;20045;-67
2023/01/08 05:35:42;;;;;;;4.47;3.15;;;9.30;94.00;;;;;;5000247;28;20025;-67
2023/01/08 05:38:08;;;;;;;4.72;3.10;;;9.20;94.00;;;;;;4995083;28;20771;-68
2023/01/08 05:40:33;;;;;;;6.43;3.85;;;9.20;94.10;;;;;;4995278;28;20040;-67
2023/01/08 05:43:00;;;;;;;7.55;3.80;;;9.10;94.20;;;;;;4995111;28;20126;-67
2023/01/08 05:45:25;;;;;;;5.32;3.20;;;9.10;94.10;;;;;;4991318;28;20053;-67
2023/01/08 05:47:51;;;;;;;3.47;2.85;;;9.10;94.40;;;;;;4995256;28;20034;-68
2023/01/08 05:50:17;;;;;;;4.60;3.70;;;9.10;94.40;;;;;;4987537;28;20582;-67
2023/01/08 05:52:43;;;;;;;7.68;3.90;;;9.10;94.40;;;;;;4994627;28;20034;-67
2023/01/08 05:55:09;;;;;;;4.18;3.33;;;9.20;94.40;;;;;;5000819;28;20040;-67
2023/01/08 05:57:35;;;;;;;4.40;3.13;;;9.20;94.30;;;;;;4999923;28;20030;-67
2023/01/08 06:00:01;;;;;;;5.97;3.58;;;9.20;94.20;;;;;;4996791;28;20494;-67
2023/01/08 06:02:26;;;;;;;4.30;3.50;;;9.10;94.40;;;;;;4995133;28;20037;-67
2023/01/08 06:04:52;;;;;;;5.82;3.33;;;9.00;94.40;;;;;;4993443;28;20406;-67
2023/01/08 06:07:18;;;;;;;4.68;3.13;;;9.00;94.70;;;;;;4993380;28;20036;-67
2023/01/08 06:09:44;;;;;;;5.32;3.45;;;9.00;94.70;;;;;;4991490;28;20799;-67
2023/01/08 06:12:09;;;;;;;4.90;3.60;;;9.00;94.70;;;;;;4993314;28;20461;-67
2023/01/08 06:14:35;;;;;;;5.63;3.67;;;9.00;94.50;;;;;;4989972;28;20049;-67
2023/01/08 06:17:01;;;;;;;6.15;3.10;;;9.00;94.40;;;;;;4990869;28;20035;-67
2023/01/08 06:19:27;;;;;;;4.05;2.80;;;9.10;94.50;;;;;;4999535;28;20045;-67
2023/01/08 06:21:52;;;;;;;4.65;3.20;;;9.20;94.30;;;;;;5004644;28;20635;-67
2023/01/08 06:24:18;;;;;;;6.45;3.20;;;9.20;94.30;;;;;;4996337;28;20045;-68
2023/01/08 06:26:44;;;;;;;6.50;3.38;;;9.30;94.20;;;;;;4994212;28;20042;-67
2023/01/08 06:29:10;;;;;;;6.13;3.42;;;9.30;93.90;;;;;;4997085;28;20117;-67
2023/01/08 06:31:35;;;;;;;5.65;3.58;;;9.30;93.80;;;;;;4990109;28;20038;-67
2023/01/08 06:34:01;;;;;;;4.35;3.22;;;9.30;93.90;;;;;;4995645;28;20034;-67
2023/01/08 06:36:27;;;;;;;3.90;3.40;;;9.30;94.20;;;;;;4996540;28;20037;-67
2023/01/08 06:38:54;;;;;;;5.47;3.45;;;9.30;94.30;;;;;;5000993;28;20133;-67
2023/01/08 06:41:20;;;;;;;4.35;3.22;;;9.30;94.20;;;;;;4999193;28;20494;-68
2023/01/08 06:43:46;;;;;;;5.28;3.40;;;9.30;94.40;;;;;;4996159;28;20034;-67
2023/01/08 06:46:13;;;;;;;6.93;3.40;;;9.30;94.50;;;;;;4990668;28;20038;-67
2023/01/08 06:48:39;;;;;;;5.97;3.60;;;9.30;94.80;;;;;;4993572;28;20037;-67
2023/01/08 06:51:05;;;;;;;4.93;3.38;;;9.20;94.70;;;;;;4994445;28;20038;-67
2023/01/08 06:53:32;;;;;;;6.18;3.33;;;9.20;95.00;;;;;;5002094;28;20063;-67
2023/01/08 06:55:58;;;;;;;4.85;3.28;;;9.20;95.10;;;;;;4998899;28;20117;-67
2023/01/08 06:58:25;;;;;;;4.82;3.42;;;9.20;95.30;;;;;;5000221;28;20053;-67
2023/01/08 07:00:51;;;;;;;5.35;3.47;;;9.20;95.40;;;;;;5005247;28;20014;-67
2023/01/08 07:03:17;;;;;;;7.95;3.78;;;9.20;95.60;;;;;;4997783;28;20136;-67
2023/01/08 07:05:44;;;;;;;7.50;3.42;;;9.20;95.80;;;;;;5001932;28;20124;-67
2023/01/08 07:08:15;;;;;;;6.00;3.92;;;9.30;95.80;;;;;;4997919;28;20665;-67
2023/01/08 07:10:41;;;;;;;5.03;3.47;;;9.30;95.80;;;;;;4998333;28;20062;-67
2023/01/08 07:13:08;;;;;;;5.60;3.63;;;9.30;96.10;;;;;;5008087;28;20501;-68
2023/01/08 07:15:36;;;;;;;5.43;3.83;;;9.20;96.10;;;;;;5002704;28;20108;-67
2023/01/08 07:18:06;;;;;;;4.65;3.50;;;9.10;96.40;;;;;;4995979;28;20402;-67
2023/01/08 07:20:33;;;;;;;4.55;3.33;;;9.00;96.90;;;;;;4997965;28;20034;-67
2023/01/08 07:23:08;;;;;;;5.00;3.97;;;8.90;97.10;;;;;;4999883;28;20113;-67
2023/01/08 07:25:34;;;;;;;5.53;3.88;;;9.00;97.00;;;;;;5000914;28;20029;-67
2023/01/08 07:28:00;;;;;;;5.47;4.05;;;8.90;97.40;;;;;;4994615;28;20667;-67
2023/01/08 07:30:27;;;;;;;8.23;4.07;;;8.90;97.60;;;;;;4999815;28;20124;-67
2023/01/08 07:32:56;;;;;;;5.43;3.97;;;8.90;97.70;;;;;;4994503;28;20041;-68
2023/01/08 07:35:22;;;;;;;5.95;3.90;;;8.80;97.90;;;;;;4991100;28;20031;-67
2023/01/08 07:37:47;;;;;;;5.35;3.92;;;8.80;98.00;;;;;;4998282;28;20031;-67
2023/01/08 07:40:13;;;;;;;5.85;4.10;;;8.80;98.20;;;;;;4995630;28;20397;-67
2023/01/08 07:42:39;;;;;;;6.75;4.25;;;8.80;98.30;;;;;;5005660;28;20026;-67
2023/01/08 07:45:06;;;;;;;7.40;4.22;;;8.80;98.50;;;;;;4998124;28;20526;-68
2023/01/08 07:47:32;;;;;;;6.63;3.80;;;8.80;98.50;;;;;;4996538;28;20509;-67
2023/01/08 07:49:58;;;;;;;8.38;4.28;;;8.80;98.50;;;;;;4995701;28;20038;-68
2023/01/08 07:52:24;;;;;;;7.60;3.97;;;8.80;98.60;;;;;;4994567;28;20033;-67
2023/01/08 07:54:50;;;;;;;5.95;3.97;;;8.80;98.70;;;;;;4997024;28;20093;-67
2023/01/08 07:57:16;;;;;;;4.80;3.67;;;8.90;98.90;;;;;;4989865;28;20027;-67
2023/01/08 07:59:41;;;;;;;6.45;3.92;;;8.90;98.80;;;;;;4991915;28;20237;-66
2023/01/08 08:02:10;;;;;;;6.65;3.97;;;8.90;98.90;;;;;;4996874;28;20037;-67
2023/01/08 08:04:36;;;;;;;6.30;4.05;;;9.00;98.90;;;;;;4998422;28;20033;-67
2023/01/08 08:07:01;;;;;;;5.55;4.05;;;9.00;98.70;;;;;;4998534;28;20080;-67
2023/01/08 08:09:27;;;;;;;6.50;3.88;;;9.00;98.70;;;;;;4995045;28;20048;-67
2023/01/08 08:11:53;;;;;;;6.85;4.18;;;9.00;99.00;;;;;;4996864;28;20038;-67
2023/01/08 08:14:19;;;;;;;8.23;4.57;;;9.00;99.10;;;;;;4993318;28;20040;-67
2023/01/08 08:16:45;;;;;;;5.82;3.92;;;8.90;99.20;;;;;;4995482;28;20034;-68
2023/01/08 08:19:11;;;;;;;4.57;3.47;;;8.90;99.30;;;;;;4994346;28;20030;-67
2023/01/08 08:21:37;;;;;;;6.03;4.38;;;8.90;99.40;;;;;;4992346;28;20033;-67
2023/01/08 08:24:03;;;;;;;5.70;3.80;;;8.80;99.40;;;;;;5004967;28;20041;-67
2023/01/08 08:26:29;;;;;;;7.70;3.95;;;8.80;99.60;;;;;;4997262;28;20034;-67
2023/01/08 08:28:55;;;;;;;5.97;4.35;;;8.80;99.50;;;;;;4998857;28;20038;-67
2023/01/08 08:31:21;;;;;;;6.18;4.03;;;8.80;99.80;;;;;;4998516;28;20115;-66
2023/01/08 08:33:46;;;;;;;5.55;3.72;;;8.80;99.80;;;;;;4993257;28;20070;-68
2023/01/08 08:36:12;;;;;;;5.47;4.07;;;8.80;99.90;;;;;;4998781;28;20109;-68
2023/01/08 08:38:38;;;;;;;6.30;3.70;;;8.80;99.80;;;;;;4987587;28;20057;-69
2023/01/08 08:41:05;;;;;;;7.25;4.13;;;8.80;99.90;;;;;;4992096;28;20030;-67
2023/01/08 08:43:30;;;;;;;5.30;3.90;;;8.90;99.90;;;;;;4993242;28;20704;-68
2023/01/08 08:45:56;;;;;;;7.32;4.70;;;9.00;99.70;;;;;;4988177;28;20038;-67
2023/01/08 08:48:23;;;;;;;5.95;4.07;;;9.00;99.60;;;;;;5000419;28;20068;-67
2023/01/08 08:50:48;;;;;;;6.93;4.35;;;9.00;99.80;;;;;;4998944;28;20088;-68
2023/01/08 08:53:14;;;;;;;6.55;4.28;;;8.90;99.90;;;;;;5000626;28;20046;-68
2023/01/08 08:55:40;;;;;;;4.50;3.45;;;8.90;99.90;;;;;;5002437;28;20030;-68
2023/01/08 08:58:11;;;;;;;6.13;4.13;;;8.90;99.80;;;;;;4999850;28;20769;-67
2023/01/08 09:00:41;;;;;;;9.13;4.30;;;8.90;99.90;;;;;;4992949;28;20022;-67
2023/01/08 09:03:14;;;;;;;6.65;4.35;;;9.00;99.90;;;;;;4992421;28;20038;-68
2023/01/08 09:05:41;;;;;;;4.47;3.63;;;9.00;99.80;;;;;;4996329;28;20042;-69
2023/01/08 09:08:08;;;;;;;6.85;4.40;;;9.00;99.80;;;;;;4999662;28;20034;-68
2023/01/08 09:10:37;;;;;;;7.85;4.70;;;9.10;99.90;;;;;;4996152;28;20095;-67
2023/01/08 09:13:02;;;;;;;5.72;4.38;;;9.10;99.70;;;;;;4995651;28;20088;-67
2023/01/08 09:15:28;;;;;;;4.97;3.95;;;9.20;99.60;;;;;;4994380;28;20026;-67
2023/01/08 09:17:55;;;;;;;6.60;4.53;;;9.10;99.60;;;;;;4988483;28;20117;-68
2023/01/08 09:20:22;;;;;;;5.35;3.30;;;9.10;99.90;;;;;;4997403;28;20795;-68
2023/01/08 09:22:48;;;;;;;4.80;4.00;;;9.10;99.80;;;;;;4998713;28;20023;-68
2023/01/08 09:25:15;;;;;;;6.40;4.07;;;9.20;99.80;;;;;;5004460;28;20037;-68
2023/01/08 09:27:40;;;;;;;8.00;4.15;;;9.10;99.80;;;;;;5001108;28;20032;-67
2023/01/08 09:30:07;;;;;;;5.32;3.92;;;9.10;99.60;;;;;;4995430;28;20475;-68
2023/01/08 09:32:32;;;;;;;5.68;4.10;;;9.10;99.90;;;;;;5001347;28;20056;-68
2023/01/08 09:34:58;;;;;;;5.82;4.45;;;9.10;99.90;;;;;;4995904;28;20042;-68
2023/01/08 09:37:24;;;;;;;6.55;4.78;;;9.10;99.90;;;;;;4995580;28;20034;-67
2023/01/08 09:39:50;;;;;;;6.43;4.35;;;9.10;99.90;;;;;;4998364;28;20033;-69
2023/01/08 09:42:22;;;;;;;9.05;4.82;;;9.00;99.90;;;;;;4988836;28;20065;-67
2023/01/08 09:44:51;;;;;;;6.05;4.00;;;9.00;99.90;;;;;;4990494;28;20085;-68
2023/01/08 09:47:27;;;;;;;6.75;4.47;;;9.00;99.90;;;;;;4998936;28;20405;-67
2023/01/08 09:49:55;;;;;;;;;;;8.90;99.90;;;;;;4994665;28;20038;-67
2023/01/08 09:52:21;;;;;;;5.95;4.10;;;8.80;99.90;;;;;;4998306;28;19917;-66
2023/01/08 09:54:47;;;;;;;6.93;4.25;;;8.80;99.90;;;;;;5005735;28;20056;-64
2023/01/08 09:57:17;;;;;;;8.80;4.30;;;8.80;99.90;;;;;;4996536;28;20050;-67
2023/01/08 09:59:46;;;;;;;7.82;4.65;;;8.80;99.90;;;;;;5002720;28;20044;-66
2023/01/08 10:02:20;;;;;;;5.85;4.13;;;8.80;99.90;;;;;;4996304;28;20250;-68
2023/01/08 10:04:59;;;;;;;6.20;4.20;;;8.70;99.90;;;;;;5003080;28;20041;-70
2023/01/08 10:07:27;;;;;;;6.80;4.50;;;8.80;99.90;;;;;;5003571;28;20041;-69
2023/01/08 10:09:54;;;;;;;7.50;4.53;;;8.80;99.90;;;;;;4990251;28;20137;-66
2023/01/08 10:12:31;;;;;;;5.13;4.20;;;8.90;99.90;;;;;;5005012;28;20038;-67
2023/01/08 10:15:00;;;;;;;7.57;4.72;;;8.90;99.90;;;;;;5003846;28;20151;-65
2023/01/08 10:17:33;;;;;;;8.50;5.22;;;8.90;99.90;;;;;;5003416;28;20031;-64
2023/01/08 10:19:59;;;;;;;11.73;5.05;;;9.00;99.90;;;;;;5001048;28;20044;-64
2023/01/08 10:22:30;;;;;;;7.28;4.93;;;9.00;99.90;;;;;;4996126;28;20030;-67
2023/01/08 10:25:09;;;;;;;10.25;5.53;;;9.10;99.90;;;;;;4999880;28;20577;-64
2023/01/08 10:27:49;;;;;;;7.53;4.82;;;9.10;99.90;;;;;;4994726;28;20044;-64
2023/01/08 10:30:18;;;;;;;7.88;4.50;;;9.20;99.90;;;;;;4999899;28;20047;-65
2023/01/08 10:32:54;;;;;;;7.22;4.43;;;9.30;99.90;;;;;;4998374;28;20445;-64
2023/01/08 10:35:28;;;;;;;5.38;4.20;;;9.40;99.90;;;;;;4997323;28;20042;-64
2023/01/08 10:37:55;;;;;;;6.38;4.38;;;9.50;99.90;;;;;;4998413;28;20027;-65
2023/01/08 10:40:45;;;;;;;6.50;4.28;;;9.50;99.90;;;;;;5001750;28;20490;-67
2023/01/08 10:43:18;;;;;;;8.45;4.40;;;9.50;99.90;;;;;;4991813;28;20025;-63
2023/01/08 10:45:56;;;;;;;6.38;4.50;;;9.40;99.90;;;;;;4995933;28;20434;-64
2023/01/08 10:48:28;;;;;;;8.68;4.75;;;9.30;99.90;;;;;;5000724;28;20041;-63
2023/01/08 10:51:14;;;;;;;6.50;4.70;;;9.30;99.90;;;;;;5001066;28;20049;-65
2023/01/08 10:53:40;;;;;;;8.23;4.43;;;9.40;99.90;;;;;;4994763;28;20040;-64
2023/01/08 10:56:17;;;;;;;6.47;4.35;;;9.40;99.90;;;;;;5002685;28;20040;-63
2023/01/08 10:58:42;;;;;;;7.85;4.55;;;9.50;99.90;;;;;;5000039;28;20033;-64
2023/01/08 11:01:30;;;;;;;7.07;4.72;;;9.70;99.90;;;;;;5004528;28;20028;-64
2023/01/08 11:03:57;;;;;;;8.77;5.30;;;9.80;99.90;;;;;;4997890;28;20045;-65
2023/01/08 11:06:31;;;;;;;9.20;5.95;;;9.90;99.90;;;;;;5000984;28;20084;-65
2023/01/08 11:09:12;;;;;;;10.95;6.07;;;10.00;99.90;;;;;;4998753;28;20034;-64
2023/01/08 11:11:38;;;;;;;8.82;4.90;;;9.90;99.90;;;;;;5002901;28;20053;-68
2023/01/08 11:14:21;;;;;;;6.28;4.20;;;9.90;99.90;;;;;;5004308;28;20621;-65
2023/01/08 11:16:47;;;;;;;5.78;3.92;;;10.00;99.90;;;;;;4994054;28;20022;-67
2023/01/08 11:19:22;;;;;;;6.65;4.55;;;10.10;99.90;;;;;;5004607;28;20394;-66
2023/01/08 11:22:15;;;;;;;7.22;4.95;;;10.10;99.90;;;;;;5000349;28;20026;-66
2023/01/08 11:24:42;;;;;;;6.55;4.80;;;10.20;99.90;;;;;;4989436;28;20080;-70
2023/01/08 11:27:19;;;;;;;6.53;4.38;;;10.10;99.90;;;;;;4997165;28;20046;-70
2023/01/08 11:29:52;;;;;;;7.97;4.65;;;10.10;99.90;;;;;;4995188;28;20038;-68
2023/01/08 11:32:53;;;;;;;7.20;4.45;;;10.00;99.90;;;;;;5001426;28;20034;-67
2023/01/08 11:35:40;;;;;;;6.13;4.55;;;10.00;99.90;;;;;;4977936;28;20046;-71
2023/01/08 11:38:07;;;;;;;6.07;4.03;;;10.10;99.90;;;;;;4992328;28;20038;-64
2023/01/08 11:40:37;;;;;;;5.53;4.28;;;10.00;99.90;;;;;;5002032;28;20094;-63
2023/01/08 11:43:31;;;;;;;8.55;4.18;;;9.80;99.90;;;;;;5000960;28;20693;-64
2023/01/08 11:46:26;;;;;;;5.43;4.03;;;9.80;99.90;;;;;;4999617;28;20899;-64
2023/01/08 11:49:09;;;;;;;7.03;4.20;;;9.80;99.90;;;;;;5001954;28;20520;-67
2023/01/08 11:52:11;;;;;;;6.93;4.22;;;9.90;99.90;;;;;;4993532;28;20033;-64
2023/01/08 11:54:58;;;;;;;7.60;3.75;;;10.00;99.90;;;;;;4988033;28;20145;-64
2023/01/08 11:57:30;;;;;;;5.65;3.83;;;10.10;99.90;;;;;;5000645;28;20871;-64
2023/01/08 12:00:13;;;;;;;5.35;3.70;;;10.10;99.90;;;;;;5006783;28;20030;-67
2023/01/08 12:02:44;;;;;;;6.13;3.90;;;10.20;99.90;;;;;;4995537;28;20410;-64
2023/01/08 12:05:32;;;;;;;6.47;4.57;;;10.10;99.90;;;;;;4993466;28;20038;-64
2023/01/08 12:08:29;;;;;;;7.53;3.88;;;10.00;99.90;;;;;;4996837;28;20447;-68
2023/01/08 12:11:25;;;;;;;6.18;3.58;;;10.00;99.90;;;;;;5000335;28;20049;-65
2023/01/08 12:14:09;;;;;;;5.57;3.23;;;10.20;99.90;;;;;;4990053;28;20080;-64
2023/01/08 12:16:56;;;;;;;5.28;3.72;;;10.40;99.90;;;;;;4997981;28;20036;-65
2023/01/08 12:20:03;;;;;;;7.22;4.30;;;10.40;99.90;;;;;;4997044;28;20030;-65
2023/01/08 12:22:45;;;;;;;9.85;4.35;;;10.40;99.90;;;;;;4966287;28;20033;-64
2023/01/08 12:25:44;;;;;;;4.93;3.70;;;10.40;99.90;;;;;;4999636;28;20033;-65
2023/01/08 12:28:26;;;;;;;6.63;3.50;;;10.30;99.90;;;;;;5002865;28;20418;-65
2023/01/08 12:31:13;;;;;;;6.60;4.15;;;10.30;99.90;;;;;;4998729;28;20200;-64
2023/01/08 12:33:51;;;;;;;7.60;4.68;;;10.30;99.90;;;;;;4998640;28;20034;-67
2023/01/08 12:36:24;;;;;;;6.63;4.85;;;10.20;99.90;;;;;;4995842;28;20474;-66
2023/01/08 12:39:01;;;;;;;6.25;3.63;;;10.20;99.90;;;;;;4992380;28;20045;-66
2023/01/08 12:41:30;;;;;;;7.85;4.43;;;10.20;99.90;;;;;;4991738;28;20372;-67
2023/01/08 12:44:10;;;;;;;5.63;3.78;;;10.20;99.90;;;;;;5000593;28;20038;-66
2023/01/08 12:46:49;;;;;;;7.63;4.38;;;10.20;99.90;;;;;;4998769;28;20447;-69
2023/01/08 12:49:23;;;;;;;6.05;4.32;;;10.20;99.90;;;;;;4998807;28;20112;-65
2023/01/08 12:52:03;;;;;;;9.65;4.30;;;10.20;99.90;;;;;;4992396;28;20038;-65
2023/01/08 12:54:55;;;;;;;5.60;3.90;;;10.30;99.90;;;;;;5000709;28;20021;-65
2023/01/08 12:57:29;;;;;;;6.90;3.95;;;10.40;99.90;;;;;;4997390;28;20030;-65
2023/01/08 12:59:58;;;;;;;9.13;4.72;;;10.30;99.90;;;;;;4998102;28;20053;-64
2023/01/08 13:02:59;;;;;;;17.48;7.60;;;10.30;99.90;;;;;;4992082;28;20602;-64
2023/01/08 13:05:24;;;;;;;8.32;5.10;;;10.20;99.90;;;;;;4997250;28;20049;-64
2023/01/08 13:07:55;;;;;;;6.00;4.22;;;10.30;99.90;;;;;;5001608;28;20034;-64
2023/01/08 13:10:34;;;;;;;9.35;4.57;;;10.30;99.90;;;;;;4993036;28;20169;-64
2023/01/08 13:13:00;;;;;;;5.75;4.22;;;10.30;99.90;;;;;;5001511;28;20038;-64
2023/01/08 13:15:29;;;;;;;7.30;4.65;;;10.30;99.90;;;;;;5004296;28;20054;-65